sensor_id;sensor_type;location;lat;lon;timestamp;pressure;altitude;pressure_sealevel;temperature;humidity
60246;BME280;46107;53.356;-1.524;2023-02-13T00:01:41;100732.30;;;4.39;69.08
60246;BME280;46107;53.356;-1.524;2023-02-13T00:04:09;100726.00;;;4.64;66.97
60246;BME280;46107;53.356;-1.524;2023-02-13T00:06:36;100726.60;;;4.75;67.10
60246;BME280;46107;53.356;-1.524;2023-02-13T00:09:04;100727.15;;;4.88;67.80
60246;BME280;46107;53.356;-1.524;2023-02-13T00:11:31;100725.74;;;3.61;71.28
60246;BME280;46107;53.356;-1.524;2023-02-13T00:13:59;100728.94;;;4.40;69.69
60246;BME280;46107;53.356;-1.524;2023-02-13T00:16:26;100723.77;;;3.43;71.46
60246;BME280;46107;53.356;-1.524;2023-02-13T00:18:53;100720.41;;;4.33;69.19
60246;BME280;46107;53.356;-1.524;2023-02-13T00:21:21;100719.72;;;4.48;68.70
60246;BME280;46107;53.356;-1.524;2023-02-13T00:23:49;100715.40;;;4.46;69.30
60246;BME280;46107;53.356;-1.524;2023-02-13T00:26:18;100715.36;;;4.58;67.64
60246;BME280;46107;53.356;-1.524;2023-02-13T00:28:45;100711.96;;;4.49;69.16
60246;BME280;46107;53.356;-1.524;2023-02-13T00:31:14;100710.88;;;4.22;69.55
60246;BME280;46107;53.356;-1.524;2023-02-13T00:33:42;100709.65;;;4.37;69.96
60246;BME280;46107;53.356;-1.524;2023-02-13T00:36:12;100711.81;;;4.40;70.03
60246;BME280;46107;53.356;-1.524;2023-02-13T00:38:41;100710.88;;;4.67;69.19
60246;BME280;46107;53.356;-1.524;2023-02-13T00:41:09;100711.50;;;4.69;69.40
60246;BME280;46107;53.356;-1.524;2023-02-13T00:43:38;100706.62;;;5.08;67.19
60246;BME280;46107;53.356;-1.524;2023-02-13T00:46:06;100707.00;;;4.84;68.46
60246;BME280;46107;53.356;-1.524;2023-02-13T00:48:34;100703.90;;;4.19;69.97
60246;BME280;46107;53.356;-1.524;2023-02-13T00:51:02;100705.43;;;2.93;76.03
60246;BME280;46107;53.356;-1.524;2023-02-13T00:53:31;100700.40;;;4.36;71.99
60246;BME280;46107;53.356;-1.524;2023-02-13T00:55:58;100702.86;;;4.62;70.18
60246;BME280;46107;53.356;-1.524;2023-02-13T00:58:27;100699.01;;;5.58;66.66
60246;BME280;46107;53.356;-1.524;2023-02-13T01:00:55;100698.61;;;4.54;70.01
60246;BME280;46107;53.356;-1.524;2023-02-13T01:03:23;100699.10;;;4.51;70.26
60246;BME280;46107;53.356;-1.524;2023-02-13T01:05:51;100694.21;;;4.26;70.70
60246;BME280;46107;53.356;-1.524;2023-02-13T01:08:19;100694.85;;;3.68;74.56
60246;BME280;46107;53.356;-1.524;2023-02-13T01:10:47;100693.29;;;4.17;72.08
60246;BME280;46107;53.356;-1.524;2023-02-13T01:13:17;100692.33;;;3.76;74.59
60246;BME280;46107;53.356;-1.524;2023-02-13T01:15:46;100691.56;;;4.37;73.03
60246;BME280;46107;53.356;-1.524;2023-02-13T01:18:14;100692.81;;;4.68;70.52
60246;BME280;46107;53.356;-1.524;2023-02-13T01:20:43;100693.30;;;4.47;70.72
60246;BME280;46107;53.356;-1.524;2023-02-13T01:23:12;100692.89;;;4.70;70.43
60246;BME280;46107;53.356;-1.524;2023-02-13T01:25:40;100691.35;;;3.73;71.64
60246;BME280;46107;53.356;-1.524;2023-02-13T01:28:08;100694.07;;;3.98;72.29
60246;BME280;46107;53.356;-1.524;2023-02-13T01:30:36;100694.46;;;5.68;65.89
60246;BME280;46107;53.356;-1.524;2023-02-13T01:33:03;100702.33;;;4.83;67.42
60246;BME280;46107;53.356;-1.524;2023-02-13T01:35:30;100699.39;;;5.17;66.13
60246;BME280;46107;53.356;-1.524;2023-02-13T01:37:58;100697.01;;;4.33;70.89
60246;BME280;46107;53.356;-1.524;2023-02-13T01:40:26;100703.25;;;3.16;78.09
60246;BME280;46107;53.356;-1.524;2023-02-13T01:42:54;100692.33;;;4.49;72.37
60246;BME280;46107;53.356;-1.524;2023-02-13T01:45:26;100694.40;;;4.60;69.97
60246;BME280;46107;53.356;-1.524;2023-02-13T01:47:57;100690.07;;;4.66;69.02
60246;BME280;46107;53.356;-1.524;2023-02-13T01:50:30;100693.12;;;5.26;69.13
60246;BME280;46107;53.356;-1.524;2023-02-13T01:53:03;100697.28;;;4.71;71.01
60246;BME280;46107;53.356;-1.524;2023-02-13T01:55:34;100692.68;;;4.99;68.99
60246;BME280;46107;53.356;-1.524;2023-02-13T01:58:07;100687.78;;;5.03;67.19
60246;BME280;46107;53.356;-1.524;2023-02-13T02:00:37;100683.88;;;4.49;68.96
60246;BME280;46107;53.356;-1.524;2023-02-13T02:03:09;100680.63;;;4.29;71.82
60246;BME280;46107;53.356;-1.524;2023-02-13T02:05:38;100682.24;;;5.17;68.90
60246;BME280;46107;53.356;-1.524;2023-02-13T02:08:09;100686.33;;;3.41;76.69
60246;BME280;46107;53.356;-1.524;2023-02-13T02:10:38;100677.12;;;3.79;76.34
60246;BME280;46107;53.356;-1.524;2023-02-13T02:13:10;100676.15;;;4.51;73.83
60246;BME280;46107;53.356;-1.524;2023-02-13T02:15:39;100675.10;;;4.09;74.70
60246;BME280;46107;53.356;-1.524;2023-02-13T02:18:13;100677.64;;;3.61;74.57
60246;BME280;46107;53.356;-1.524;2023-02-13T02:22:18;100672.86;;;5.30;71.39
60246;BME280;46107;53.356;-1.524;2023-02-13T02:25:19;100668.92;;;3.73;74.68
60246;BME280;46107;53.356;-1.524;2023-02-13T02:28:03;100670.79;;;5.11;70.60
60246;BME280;46107;53.356;-1.524;2023-02-13T02:33:13;100663.98;;;5.40;68.38
60246;BME280;46107;53.356;-1.524;2023-02-13T02:35:54;100656.16;;;5.36;67.35
60246;BME280;46107;53.356;-1.524;2023-02-13T02:38:37;100656.15;;;4.89;69.23
60246;BME280;46107;53.356;-1.524;2023-02-13T02:41:09;100655.91;;;3.02;75.82
60246;BME280;46107;53.356;-1.524;2023-02-13T02:43:51;100662.06;;;4.58;72.76
60246;BME280;46107;53.356;-1.524;2023-02-13T02:46:27;100668.03;;;4.93;69.60
60246;BME280;46107;53.356;-1.524;2023-02-13T02:49:04;100665.32;;;5.00;68.19
60246;BME280;46107;53.356;-1.524;2023-02-13T02:51:39;100666.52;;;5.14;68.20
60246;BME280;46107;53.356;-1.524;2023-02-13T02:54:12;100666.32;;;4.43;69.00
60246;BME280;46107;53.356;-1.524;2023-02-13T02:56:44;100666.56;;;4.08;70.77
60246;BME280;46107;53.356;-1.524;2023-02-13T02:59:15;100659.84;;;4.88;67.93
60246;BME280;46107;53.356;-1.524;2023-02-13T03:01:45;100659.66;;;4.89;67.34
60246;BME280;46107;53.356;-1.524;2023-02-13T03:04:19;100662.22;;;4.75;67.81
60246;BME280;46107;53.356;-1.524;2023-02-13T03:06:51;100658.93;;;5.27;67.21
60246;BME280;46107;53.356;-1.524;2023-02-13T03:09:24;100654.70;;;4.71;68.65
60246;BME280;46107;53.356;-1.524;2023-02-13T03:11:55;100652.26;;;5.36;66.21
60246;BME280;46107;53.356;-1.524;2023-02-13T03:14:25;100648.08;;;5.67;66.46
60246;BME280;46107;53.356;-1.524;2023-02-13T03:16:53;100652.95;;;5.30;67.91
60246;BME280;46107;53.356;-1.524;2023-02-13T03:19:27;100648.53;;;5.91;64.08
60246;BME280;46107;53.356;-1.524;2023-02-13T03:22:07;100647.35;;;4.95;67.71
60246;BME280;46107;53.356;-1.524;2023-02-13T03:24:49;100644.24;;;5.72;64.79
60246;BME280;46107;53.356;-1.524;2023-02-13T03:27:29;100643.24;;;3.56;71.42
60246;BME280;46107;53.356;-1.524;2023-02-13T03:30:04;100639.14;;;4.68;70.36
60246;BME280;46107;53.356;-1.524;2023-02-13T03:32:42;100640.04;;;4.77;67.96
60246;BME280;46107;53.356;-1.524;2023-02-13T03:35:21;100636.87;;;2.95;74.10
60246;BME280;46107;53.356;-1.524;2023-02-13T03:38:00;100636.44;;;4.82;70.16
60246;BME280;46107;53.356;-1.524;2023-02-13T03:40:42;100631.92;;;3.28;73.88
60246;BME280;46107;53.356;-1.524;2023-02-13T03:43:15;100631.42;;;3.96;74.36
60246;BME280;46107;53.356;-1.524;2023-02-13T03:45:47;100628.08;;;3.74;73.42
60246;BME280;46107;53.356;-1.524;2023-02-13T03:48:18;100630.54;;;4.45;72.19
60246;BME280;46107;53.356;-1.524;2023-02-13T03:50:46;100634.68;;;3.56;73.85
60246;BME280;46107;53.356;-1.524;2023-02-13T03:53:15;100638.37;;;4.06;72.69
60246;BME280;46107;53.356;-1.524;2023-02-13T03:55:45;100637.85;;;4.19;72.21
60246;BME280;46107;53.356;-1.524;2023-02-13T03:58:16;100636.89;;;3.89;71.41
60246;BME280;46107;53.356;-1.524;2023-02-13T04:00:48;100632.48;;;4.49;71.93
60246;BME280;46107;53.356;-1.524;2023-02-13T04:03:21;100631.18;;;3.51;73.91
60246;BME280;46107;53.356;-1.524;2023-02-13T04:05:55;100632.85;;;4.44;71.55
60246;BME280;46107;53.356;-1.524;2023-02-13T04:08:24;100635.47;;;4.82;69.59
60246;BME280;46107;53.356;-1.524;2023-02-13T04:10:56;100632.90;;;5.26;67.61
60246;BME280;46107;53.356;-1.524;2023-02-13T04:13:31;100630.79;;;5.08;67.22
60246;BME280;46107;53.356;-1.524;2023-02-13T04:16:05;100636.54;;;4.52;69.14
60246;BME280;46107;53.356;-1.524;2023-02-13T04:18:34;100631.82;;;4.76;68.16
60246;BME280;46107;53.356;-1.524;2023-02-13T04:21:04;100624.67;;;4.27;70.40
60246;BME280;46107;53.356;-1.524;2023-02-13T04:23:33;100627.66;;;3.82;71.18
60246;BME280;46107;53.356;-1.524;2023-02-13T04:26:02;100627.03;;;5.00;68.89
60246;BME280;46107;53.356;-1.524;2023-02-13T04:28:32;100621.86;;;4.62;71.86
60246;BME280;46107;53.356;-1.524;2023-02-13T04:30:59;100624.20;;;2.89;77.93
60246;BME280;46107;53.356;-1.524;2023-02-13T04:33:26;100628.29;;;3.17;79.97
60246;BME280;46107;53.356;-1.524;2023-02-13T04:35:54;100622.88;;;4.14;73.10
60246;BME280;46107;53.356;-1.524;2023-02-13T04:38:21;100625.25;;;3.94;74.46
60246;BME280;46107;53.356;-1.524;2023-02-13T04:40:48;100628.51;;;3.21;75.88
60246;BME280;46107;53.356;-1.524;2023-02-13T04:43:16;100628.26;;;4.47;72.97
60246;BME280;46107;53.356;-1.524;2023-02-13T04:45:47;100626.86;;;4.67;71.21
60246;BME280;46107;53.356;-1.524;2023-02-13T04:48:15;100618.31;;;5.20;68.37
60246;BME280;46107;53.356;-1.524;2023-02-13T04:50:42;100624.58;;;3.94;70.75
60246;BME280;46107;53.356;-1.524;2023-02-13T04:53:10;100619.40;;;4.27;70.82
60246;BME280;46107;53.356;-1.524;2023-02-13T04:55:38;100616.84;;;4.19;72.27
60246;BME280;46107;53.356;-1.524;2023-02-13T04:58:06;100614.20;;;4.05;74.49
60246;BME280;46107;53.356;-1.524;2023-02-13T05:00:33;100610.69;;;4.37;73.90
60246;BME280;46107;53.356;-1.524;2023-02-13T05:03:03;100610.73;;;4.11;72.52
60246;BME280;46107;53.356;-1.524;2023-02-13T05:05:31;100604.48;;;2.97;77.53
60246;BME280;46107;53.356;-1.524;2023-02-13T05:07:58;100610.04;;;4.01;75.49
60246;BME280;46107;53.356;-1.524;2023-02-13T05:10:27;100614.70;;;4.86;72.35
60246;BME280;46107;53.356;-1.524;2023-02-13T05:12:54;100608.49;;;3.59;77.57
60246;BME280;46107;53.356;-1.524;2023-02-13T05:15:22;100611.99;;;3.58;77.73
60246;BME280;46107;53.356;-1.524;2023-02-13T05:17:51;100612.90;;;4.55;72.91
60246;BME280;46107;53.356;-1.524;2023-02-13T05:20:18;100615.12;;;3.02;74.91
60246;BME280;46107;53.356;-1.524;2023-02-13T05:22:48;100614.25;;;3.56;76.84
60246;BME280;46107;53.356;-1.524;2023-02-13T05:25:16;100608.74;;;3.67;76.97
60246;BME280;46107;53.356;-1.524;2023-02-13T05:27:43;100605.98;;;3.82;75.93
60246;BME280;46107;53.356;-1.524;2023-02-13T05:30:12;100599.28;;;4.77;72.20
60246;BME280;46107;53.356;-1.524;2023-02-13T05:32:40;100600.06;;;4.39;71.99
60246;BME280;46107;53.356;-1.524;2023-02-13T05:35:08;100601.15;;;4.56;71.79
60246;BME280;46107;53.356;-1.524;2023-02-13T05:37:35;100593.91;;;4.86;71.59
60246;BME280;46107;53.356;-1.524;2023-02-13T05:40:03;100592.51;;;4.19;71.89
60246;BME280;46107;53.356;-1.524;2023-02-13T05:42:31;100594.98;;;4.54;71.14
60246;BME280;46107;53.356;-1.524;2023-02-13T05:44:59;100591.51;;;5.17;67.27
60246;BME280;46107;53.356;-1.524;2023-02-13T05:47:27;100596.14;;;3.99;71.72
60246;BME280;46107;53.356;-1.524;2023-02-13T05:49:54;100598.33;;;3.77;75.12
60246;BME280;46107;53.356;-1.524;2023-02-13T05:52:22;100597.63;;;4.50;72.13
60246;BME280;46107;53.356;-1.524;2023-02-13T05:54:50;100593.82;;;4.66;69.81
60246;BME280;46107;53.356;-1.524;2023-02-13T05:57:18;100586.25;;;3.92;73.09
60246;BME280;46107;53.356;-1.524;2023-02-13T05:59:45;100584.86;;;4.02;72.80
60246;BME280;46107;53.356;-1.524;2023-02-13T06:02:13;100582.60;;;5.08;70.19
60246;BME280;46107;53.356;-1.524;2023-02-13T06:04:40;100583.47;;;4.92;69.36
60246;BME280;46107;53.356;-1.524;2023-02-13T06:07:07;100587.53;;;4.59;70.52
60246;BME280;46107;53.356;-1.524;2023-02-13T06:09:35;100588.50;;;4.35;72.30
60246;BME280;46107;53.356;-1.524;2023-02-13T06:12:03;100587.89;;;4.29;70.95
60246;BME280;46107;53.356;-1.524;2023-02-13T06:14:31;100588.88;;;4.38;73.02
60246;BME280;46107;53.356;-1.524;2023-02-13T06:17:00;100592.55;;;4.56;73.21
60246;BME280;46107;53.356;-1.524;2023-02-13T06:19:27;100596.61;;;4.57;72.31
60246;BME280;46107;53.356;-1.524;2023-02-13T06:21:54;100591.23;;;3.94;72.20
60246;BME280;46107;53.356;-1.524;2023-02-13T06:24:22;100589.35;;;4.31;71.78
60246;BME280;46107;53.356;-1.524;2023-02-13T06:26:49;100585.58;;;3.52;74.36
60246;BME280;46107;53.356;-1.524;2023-02-13T06:29:17;100583.32;;;4.72;73.72
60246;BME280;46107;53.356;-1.524;2023-02-13T06:31:45;100583.97;;;4.08;73.41
60246;BME280;46107;53.356;-1.524;2023-02-13T06:34:13;100584.75;;;4.27;75.45
60246;BME280;46107;53.356;-1.524;2023-02-13T06:36:40;100583.99;;;4.05;75.09
60246;BME280;46107;53.356;-1.524;2023-02-13T06:39:08;100586.21;;;4.26;73.48
60246;BME280;46107;53.356;-1.524;2023-02-13T06:41:36;100585.55;;;4.46;74.25
60246;BME280;46107;53.356;-1.524;2023-02-13T06:44:04;100588.48;;;3.92;76.49
60246;BME280;46107;53.356;-1.524;2023-02-13T06:46:31;100585.31;;;4.79;73.98
60246;BME280;46107;53.356;-1.524;2023-02-13T06:48:59;100587.08;;;4.10;75.96
60246;BME280;46107;53.356;-1.524;2023-02-13T06:51:27;100585.79;;;4.81;71.94
60246;BME280;46107;53.356;-1.524;2023-02-13T06:53:55;100590.08;;;4.41;73.01
60246;BME280;46107;53.356;-1.524;2023-02-13T06:56:23;100590.77;;;3.95;74.72
60246;BME280;46107;53.356;-1.524;2023-02-13T06:58:50;100590.45;;;3.97;76.77
60246;BME280;46107;53.356;-1.524;2023-02-13T07:01:18;100592.25;;;4.24;74.98
60246;BME280;46107;53.356;-1.524;2023-02-13T07:03:46;100595.90;;;4.96;74.92
60246;BME280;46107;53.356;-1.524;2023-02-13T07:06:16;100594.95;;;4.98;72.10
60246;BME280;46107;53.356;-1.524;2023-02-13T07:08:44;100595.84;;;4.58;73.26
60246;BME280;46107;53.356;-1.524;2023-02-13T07:11:17;100598.02;;;5.04;73.03
60246;BME280;46107;53.356;-1.524;2023-02-13T07:13:44;100594.16;;;4.34;75.09
60246;BME280;46107;53.356;-1.524;2023-02-13T07:16:13;100592.04;;;3.86;76.17
60246;BME280;46107;53.356;-1.524;2023-02-13T07:18:41;100592.73;;;3.90;77.66
60246;BME280;46107;53.356;-1.524;2023-02-13T07:21:09;100589.91;;;4.94;73.99
60246;BME280;46107;53.356;-1.524;2023-02-13T07:23:36;100598.39;;;4.68;73.79
60246;BME280;46107;53.356;-1.524;2023-02-13T07:26:04;100595.09;;;4.57;76.57
60246;BME280;46107;53.356;-1.524;2023-02-13T07:28:32;100595.04;;;4.27;76.60
60246;BME280;46107;53.356;-1.524;2023-02-13T07:31:03;100591.21;;;4.19;79.13
60246;BME280;46107;53.356;-1.524;2023-02-13T07:33:32;100583.31;;;4.25;77.98
60246;BME280;46107;53.356;-1.524;2023-02-13T07:36:00;100586.41;;;4.34;76.98
60246;BME280;46107;53.356;-1.524;2023-02-13T07:38:29;100578.75;;;5.10;72.38
60246;BME280;46107;53.356;-1.524;2023-02-13T07:40:58;100582.26;;;4.60;72.83
60246;BME280;46107;53.356;-1.524;2023-02-13T07:43:26;100577.38;;;4.78;73.32
60246;BME280;46107;53.356;-1.524;2023-02-13T07:45:57;100581.22;;;5.09;73.69
60246;BME280;46107;53.356;-1.524;2023-02-13T07:48:25;100579.00;;;5.30;71.24
60246;BME280;46107;53.356;-1.524;2023-02-13T07:50:53;100587.07;;;6.20;67.45
60246;BME280;46107;53.356;-1.524;2023-02-13T07:53:21;100591.01;;;6.14;66.93
60246;BME280;46107;53.356;-1.524;2023-02-13T07:55:49;100586.95;;;6.13;66.64
60246;BME280;46107;53.356;-1.524;2023-02-13T07:58:17;100587.39;;;6.95;65.50
60246;BME280;46107;53.356;-1.524;2023-02-13T08:00:45;100586.92;;;5.70;68.82
60246;BME280;46107;53.356;-1.524;2023-02-13T08:03:12;100582.09;;;5.24;70.46
60246;BME280;46107;53.356;-1.524;2023-02-13T08:05:40;100587.22;;;5.67;68.46
60246;BME280;46107;53.356;-1.524;2023-02-13T08:08:07;100584.50;;;5.44;69.40
60246;BME280;46107;53.356;-1.524;2023-02-13T08:10:35;100577.50;;;4.51;73.47
60246;BME280;46107;53.356;-1.524;2023-02-13T08:13:03;100572.57;;;5.17;72.79
60246;BME280;46107;53.356;-1.524;2023-02-13T08:15:31;100582.82;;;4.47;74.62
60246;BME280;46107;53.356;-1.524;2023-02-13T08:17:58;100573.41;;;4.39;75.40
60246;BME280;46107;53.356;-1.524;2023-02-13T08:20:26;100566.57;;;4.35;75.94
60246;BME280;46107;53.356;-1.524;2023-02-13T08:22:59;100570.38;;;3.90;79.14
60246;BME280;46107;53.356;-1.524;2023-02-13T08:25:28;100561.72;;;5.19;73.85
60246;BME280;46107;53.356;-1.524;2023-02-13T08:27:56;100564.90;;;5.90;71.41
60246;BME280;46107;53.356;-1.524;2023-02-13T08:30:23;100564.24;;;4.70;73.74
60246;BME280;46107;53.356;-1.524;2023-02-13T08:32:51;100566.78;;;4.43;74.66
60246;BME280;46107;53.356;-1.524;2023-02-13T08:35:18;100564.66;;;4.96;75.14
60246;BME280;46107;53.356;-1.524;2023-02-13T08:37:46;100571.07;;;4.71;74.71
60246;BME280;46107;53.356;-1.524;2023-02-13T08:40:13;100574.69;;;4.62;75.12
60246;BME280;46107;53.356;-1.524;2023-02-13T08:42:41;100578.12;;;5.66;72.24
60246;BME280;46107;53.356;-1.524;2023-02-13T08:45:13;100574.28;;;5.22;72.26
60246;BME280;46107;53.356;-1.524;2023-02-13T08:47:40;100577.75;;;2.88;80.97
60246;BME280;46107;53.356;-1.524;2023-02-13T08:50:08;100582.83;;;3.94;79.01
60246;BME280;46107;53.356;-1.524;2023-02-13T08:52:35;100581.57;;;4.25;77.32
60246;BME280;46107;53.356;-1.524;2023-02-13T08:55:03;100581.80;;;4.86;76.01
60246;BME280;46107;53.356;-1.524;2023-02-13T08:57:31;100581.45;;;4.70;76.45
60246;BME280;46107;53.356;-1.524;2023-02-13T08:59:59;100585.00;;;5.16;75.02
60246;BME280;46107;53.356;-1.524;2023-02-13T09:02:27;100588.14;;;4.42;77.93
60246;BME280;46107;53.356;-1.524;2023-02-13T09:04:55;100591.52;;;5.31;74.05
60246;BME280;46107;53.356;-1.524;2023-02-13T09:07:22;100597.20;;;4.85;75.72
60246;BME280;46107;53.356;-1.524;2023-02-13T09:09:49;100600.66;;;5.06;75.71
60246;BME280;46107;53.356;-1.524;2023-02-13T09:12:17;100592.43;;;5.61;74.76
60246;BME280;46107;53.356;-1.524;2023-02-13T09:14:47;100592.56;;;5.38;74.09
60246;BME280;46107;53.356;-1.524;2023-02-13T09:17:14;100591.12;;;5.74;73.09
60246;BME280;46107;53.356;-1.524;2023-02-13T09:19:42;100592.52;;;4.52;76.55
60246;BME280;46107;53.356;-1.524;2023-02-13T09:22:10;100590.72;;;4.65;76.85
60246;BME280;46107;53.356;-1.524;2023-02-13T09:24:37;100586.27;;;4.10;79.67
60246;BME280;46107;53.356;-1.524;2023-02-13T09:27:04;100582.22;;;4.94;75.22
60246;BME280;46107;53.356;-1.524;2023-02-13T09:29:31;100585.20;;;4.56;75.33
60246;BME280;46107;53.356;-1.524;2023-02-13T09:31:59;100586.46;;;4.37;78.24
60246;BME280;46107;53.356;-1.524;2023-02-13T09:34:27;100583.98;;;4.81;77.24
60246;BME280;46107;53.356;-1.524;2023-02-13T09:36:55;100587.67;;;4.80;75.77
60246;BME280;46107;53.356;-1.524;2023-02-13T09:39:22;100587.11;;;5.02;74.44
60246;BME280;46107;53.356;-1.524;2023-02-13T09:41:52;100579.06;;;4.94;76.87
60246;BME280;46107;53.356;-1.524;2023-02-13T09:44:26;100575.21;;;4.29;77.23
60246;BME280;46107;53.356;-1.524;2023-02-13T09:46:56;100576.15;;;4.68;75.66
60246;BME280;46107;53.356;-1.524;2023-02-13T09:49:27;100582.85;;;4.29;76.73
60246;BME280;46107;53.356;-1.524;2023-02-13T09:51:57;100586.20;;;4.92;75.69
60246;BME280;46107;53.356;-1.524;2023-02-13T09:54:24;100585.55;;;5.34;73.97
60246;BME280;46107;53.356;-1.524;2023-02-13T09:56:57;100586.08;;;6.23;68.87
60246;BME280;46107;53.356;-1.524;2023-02-13T09:59:36;100584.52;;;4.37;74.66
60246;BME280;46107;53.356;-1.524;2023-02-13T10:02:19;100589.91;;;4.02;78.79
60246;BME280;46107;53.356;-1.524;2023-02-13T10:04:55;100581.03;;;5.48;73.50
60246;BME280;46107;53.356;-1.524;2023-02-13T10:07:32;100581.19;;;4.74;75.17
60246;BME280;46107;53.356;-1.524;2023-02-13T10:10:11;100581.28;;;5.02;73.92
60246;BME280;46107;53.356;-1.524;2023-02-13T10:12:56;100583.03;;;6.41;68.49
60246;BME280;46107;53.356;-1.524;2023-02-13T10:15:33;100584.74;;;6.29;67.69
60246;BME280;46107;53.356;-1.524;2023-02-13T10:18:05;100583.57;;;5.97;68.94
60246;BME280;46107;53.356;-1.524;2023-02-13T10:20:41;100588.48;;;6.19;67.77
60246;BME280;46107;53.356;-1.524;2023-02-13T10:23:20;100591.32;;;5.95;68.51
60246;BME280;46107;53.356;-1.524;2023-02-13T10:25:54;100588.90;;;4.88;72.21
60246;BME280;46107;53.356;-1.524;2023-02-13T10:28:31;100593.37;;;4.61;73.86
60246;BME280;46107;53.356;-1.524;2023-02-13T10:31:04;100595.93;;;5.95;69.00
60246;BME280;46107;53.356;-1.524;2023-02-13T10:33:38;100593.01;;;5.35;70.64
60246;BME280;46107;53.356;-1.524;2023-02-13T10:36:15;100599.34;;;5.40;68.51
60246;BME280;46107;53.356;-1.524;2023-02-13T10:38:54;100599.54;;;4.49;70.98
60246;BME280;46107;53.356;-1.524;2023-02-13T10:41:24;100602.26;;;5.69;68.10
60246;BME280;46107;53.356;-1.524;2023-02-13T10:44:08;100599.75;;;5.57;68.98
60246;BME280;46107;53.356;-1.524;2023-02-13T10:46:49;100592.88;;;5.98;67.26
60246;BME280;46107;53.356;-1.524;2023-02-13T10:49:32;100587.86;;;4.97;71.17
60246;BME280;46107;53.356;-1.524;2023-02-13T10:52:10;100594.80;;;5.83;68.13
60246;BME280;46107;53.356;-1.524;2023-02-13T10:55:23;100584.28;;;6.70;63.38
60246;BME280;46107;53.356;-1.524;2023-02-13T10:58:06;100587.38;;;6.36;63.80
60246;BME280;46107;53.356;-1.524;2023-02-13T11:00:39;100578.33;;;6.92;62.89
60246;BME280;46107;53.356;-1.524;2023-02-13T11:03:16;100578.86;;;6.94;61.34
60246;BME280;46107;53.356;-1.524;2023-02-13T11:05:45;100576.54;;;6.73;61.78
60246;BME280;46107;53.356;-1.524;2023-02-13T11:08:20;100582.15;;;5.35;66.81
60246;BME280;46107;53.356;-1.524;2023-02-13T11:10:49;100578.90;;;5.10;67.79
60246;BME280;46107;53.356;-1.524;2023-02-13T11:13:19;100579.81;;;5.39;67.59
60246;BME280;46107;53.356;-1.524;2023-02-13T11:16:04;100577.59;;;4.01;72.72
60246;BME280;46107;53.356;-1.524;2023-02-13T11:18:35;100578.10;;;5.22;69.45
60246;BME280;46107;53.356;-1.524;2023-02-13T11:21:08;100573.06;;;4.38;71.69
60246;BME280;46107;53.356;-1.524;2023-02-13T11:23:40;100565.97;;;6.09;66.66
60246;BME280;46107;53.356;-1.524;2023-02-13T11:26:11;100557.36;;;6.73;61.91
60246;BME280;46107;53.356;-1.524;2023-02-13T11:28:47;100562.21;;;6.28;65.84
60246;BME280;46107;53.356;-1.524;2023-02-13T11:31:25;100557.99;;;5.06;69.50
60246;BME280;46107;53.356;-1.524;2023-02-13T11:33:53;100552.48;;;5.54;66.60
60246;BME280;46107;53.356;-1.524;2023-02-13T11:36:26;100555.03;;;5.49;69.32
60246;BME280;46107;53.356;-1.524;2023-02-13T11:38:59;100551.09;;;4.92;67.11
60246;BME280;46107;53.356;-1.524;2023-02-13T11:41:29;100549.06;;;6.09;65.47
60246;BME280;46107;53.356;-1.524;2023-02-13T11:43:58;100537.45;;;7.07;62.57
60246;BME280;46107;53.356;-1.524;2023-02-13T11:46:28;100534.72;;;6.33;63.04
60246;BME280;46107;53.356;-1.524;2023-02-13T11:48:58;100531.61;;;6.66;61.29
60246;BME280;46107;53.356;-1.524;2023-02-13T11:51:43;100529.85;;;6.82;60.50
60246;BME280;46107;53.356;-1.524;2023-02-13T11:54:44;100540.13;;;4.87;66.79
60246;BME280;46107;53.356;-1.524;2023-02-13T11:57:19;100533.48;;;4.93;68.78
60246;BME280;46107;53.356;-1.524;2023-02-13T11:59:48;100525.23;;;4.46;72.41
60246;BME280;46107;53.356;-1.524;2023-02-13T12:02:19;100524.74;;;4.66;72.45
60246;BME280;46107;53.356;-1.524;2023-02-13T12:04:48;100527.87;;;4.81;70.76
60246;BME280;46107;53.356;-1.524;2023-02-13T12:07:19;100524.76;;;5.34;69.32
60246;BME280;46107;53.356;-1.524;2023-02-13T12:09:50;100520.29;;;5.69;67.44
60246;BME280;46107;53.356;-1.524;2023-02-13T12:12:25;100514.85;;;6.31;68.39
60246;BME280;46107;53.356;-1.524;2023-02-13T12:14:55;100513.93;;;6.26;64.38
60246;BME280;46107;53.356;-1.524;2023-02-13T12:17:27;100511.20;;;7.06;60.97
60246;BME280;46107;53.356;-1.524;2023-02-13T12:19:56;100515.48;;;5.81;65.36
60246;BME280;46107;53.356;-1.524;2023-02-13T12:22:31;100517.81;;;5.36;66.96
60246;BME280;46107;53.356;-1.524;2023-02-13T12:25:45;100509.57;;;4.08;72.50
60246;BME280;46107;53.356;-1.524;2023-02-13T12:28:16;100502.63;;;5.79;65.83
60246;BME280;46107;53.356;-1.524;2023-02-13T12:31:00;100497.55;;;6.07;65.17
60246;BME280;46107;53.356;-1.524;2023-02-13T12:33:43;100500.84;;;5.93;64.13
60246;BME280;46107;53.356;-1.524;2023-02-13T12:36:19;100511.39;;;6.15;64.28
60246;BME280;46107;53.356;-1.524;2023-02-13T12:39:01;100505.17;;;6.57;62.88
60246;BME280;46107;53.356;-1.524;2023-02-13T12:41:38;100505.12;;;5.90;66.21
60246;BME280;46107;53.356;-1.524;2023-02-13T12:44:27;100486.24;;;7.44;59.40
60246;BME280;46107;53.356;-1.524;2023-02-13T12:47:11;100489.08;;;6.60;61.39
60246;BME280;46107;53.356;-1.524;2023-02-13T12:50:04;100484.78;;;6.66;62.97
60246;BME280;46107;53.356;-1.524;2023-02-13T12:52:43;100481.00;;;6.40;64.06
60246;BME280;46107;53.356;-1.524;2023-02-13T12:55:27;100482.88;;;6.21;65.02
60246;BME280;46107;53.356;-1.524;2023-02-13T12:58:13;100485.37;;;6.80;63.40
60246;BME280;46107;53.356;-1.524;2023-02-13T13:00:51;100487.44;;;6.88;61.26
60246;BME280;46107;53.356;-1.524;2023-02-13T13:03:32;100488.59;;;7.04;60.48
60246;BME280;46107;53.356;-1.524;2023-02-13T13:06:13;100479.82;;;6.50;61.91
60246;BME280;46107;53.356;-1.524;2023-02-13T13:08:55;100479.42;;;7.30;59.49
60246;BME280;46107;53.356;-1.524;2023-02-13T13:11:35;100479.02;;;6.11;62.67
60246;BME280;46107;53.356;-1.524;2023-02-13T13:14:13;100478.38;;;7.29;59.04
60246;BME280;46107;53.356;-1.524;2023-02-13T13:16:51;100471.37;;;7.85;57.58